createdAt,value
2016-10-15T00:00:26.841Z,0
2016-10-15T00:01:26.117Z,0
2016-10-15T00:02:25.233Z,0
2016-10-15T00:03:24.205Z,0
2016-10-15T00:04:27.653Z,0
2016-10-15T00:05:25.162Z,0
2016-10-15T00:06:24.719Z,0
2016-10-15T00:07:25.983Z,0
2016-10-15T00:08:26.141Z,0
2016-10-15T00:09:25.934Z,0
2016-10-15T00:10:24.855Z,0
2016-10-15T00:11:26.705Z,0
2016-10-15T00:12:25.206Z,0
2016-10-15T00:13:26.028Z,0
2016-10-15T00:14:24.992Z,0
2016-10-15T00:15:24.383Z,0
2016-10-15T00:16:26.018Z,0
2016-10-15T00:17:25.518Z,0
2016-10-15T00:18:27.412Z,0
2016-10-15T00:19:26.823Z,0
2016-10-15T00:20:28.085Z,0
2016-10-15T00:21:25.973Z,0
2016-10-15T00:22:25.313Z,0
2016-10-15T00:23:26.939Z,0
2016-10-15T00:24:25.681Z,0
2016-10-15T00:25:26.438Z,0
2016-10-15T00:26:24.646Z,0
2016-10-15T00:27:26.164Z,0
2016-10-15T00:28:25.845Z,0
2016-10-15T00:29:24.893Z,0
2016-10-15T00:30:24.284Z,0
2016-10-15T00:31:25.848Z,0
2016-10-15T00:32:25.146Z,0
2016-10-15T00:33:24.396Z,0
2016-10-15T00:34:25.579Z,0
2016-10-15T00:35:27.773Z,0
2016-10-15T00:36:25.420Z,0
2016-10-15T00:37:26.342Z,0
2016-10-15T00:38:24.848Z,0
2016-10-15T00:39:26.019Z,0
2016-10-15T00:40:25.372Z,0
2016-10-15T00:41:25.681Z,0
2016-10-15T00:42:26.400Z,0
2016-10-15T00:43:24.527Z,0
2016-10-15T00:44:26.363Z,0
2016-10-15T00:45:25.695Z,0
2016-10-15T00:46:26.241Z,0
2016-10-15T00:47:26.495Z,0
2016-10-15T00:48:24.144Z,0
2016-10-15T00:49:25.714Z,0
2016-10-15T00:50:26.243Z,0
2016-10-15T00:51:26.115Z,0
2016-10-15T00:52:26.204Z,0
2016-10-15T00:53:26.312Z,0
2016-10-15T00:54:27.666Z,0
2016-10-15T00:55:25.677Z,0
2016-10-15T00:56:25.881Z,0
2016-10-15T00:57:26.590Z,0
2016-10-15T00:58:26.173Z,0
2016-10-15T00:59:26.148Z,0
2016-10-15T01:00:25.503Z,0
2016-10-15T01:01:26.146Z,0
2016-10-15T01:02:26.064Z,0
2016-10-15T01:03:25.875Z,0
2016-10-15T01:04:27.300Z,0
2016-10-15T01:05:28.057Z,0
2016-10-15T01:06:26.025Z,0
2016-10-15T01:07:26.108Z,0
2016-10-15T01:08:25.851Z,0
2016-10-15T01:09:28.291Z,0
2016-10-15T01:10:27.762Z,0
2016-10-15T01:11:27.694Z,0
2016-10-15T01:12:26.688Z,0
2016-10-15T01:13:26.878Z,0
2016-10-15T01:14:25.944Z,0
2016-10-15T01:15:26.986Z,0
2016-10-15T01:16:27.755Z,0
2016-10-15T01:17:27.495Z,0
2016-10-15T01:18:27.113Z,0
2016-10-15T01:19:26.950Z,0
2016-10-15T01:20:26.614Z,0
2016-10-15T01:21:27.870Z,0
2016-10-15T01:22:26.487Z,0
2016-10-15T01:23:26.676Z,0
2016-10-15T01:24:27.031Z,0
2016-10-15T01:25:26.388Z,0
2016-10-15T01:26:26.640Z,0
2016-10-15T01:27:27.815Z,0
2016-10-15T01:28:28.444Z,0
2016-10-15T01:29:27.808Z,0
2016-10-15T01:30:27.889Z,0
2016-10-15T01:31:28.468Z,0
2016-10-15T01:32:26.454Z,0
2016-10-15T01:33:26.943Z,0
2016-10-15T01:34:25.334Z,0
2016-10-15T01:35:27.959Z,0
2016-10-15T01:36:28.089Z,0
2016-10-15T01:37:25.899Z,0
2016-10-15T01:38:26.939Z,0
2016-10-15T01:39:27.034Z,0
2016-10-15T01:40:25.737Z,0
2016-10-15T01:41:28.442Z,0
2016-10-15T01:42:27.950Z,0
2016-10-15T01:43:29.108Z,0
2016-10-15T01:44:25.613Z,0
2016-10-15T01:45:26.708Z,0
2016-10-15T01:46:27.872Z,0
2016-10-15T01:47:26.856Z,0
2016-10-15T01:48:29.192Z,0
2016-10-15T01:49:28.168Z,0
2016-10-15T01:50:27.460Z,0
2016-10-15T01:51:27.594Z,0
2016-10-15T01:52:30.278Z,0
2016-10-15T01:53:27.377Z,0
2016-10-15T01:54:29.344Z,0
2016-10-15T01:55:27.586Z,0
2016-10-15T01:56:28.422Z,0
2016-10-15T01:57:27.395Z,0
2016-10-15T01:58:26.453Z,0
2016-10-15T01:59:25.962Z,0
2016-10-15T02:00:27.739Z,0
2016-10-15T02:01:27.551Z,0
2016-10-15T02:02:26.910Z,0
2016-10-15T02:03:28.120Z,0
2016-10-15T02:04:28.945Z,0
2016-10-15T02:05:26.384Z,0
2016-10-15T02:06:25.805Z,0
2016-10-15T02:07:27.878Z,0
2016-10-15T02:08:27.437Z,0
2016-10-15T02:09:26.264Z,0
2016-10-15T02:10:26.972Z,0
2016-10-15T02:11:28.627Z,0
2016-10-15T02:12:27.985Z,0
2016-10-15T02:13:28.143Z,0
2016-10-15T02:14:27.613Z,0
2016-10-15T02:15:28.702Z,0
2016-10-15T02:16:28.369Z,0
2016-10-15T02:17:28.523Z,0
2016-10-15T02:18:27.957Z,0
2016-10-15T02:19:27.539Z,0
2016-10-15T02:20:28.817Z,0
2016-10-15T02:21:27.146Z,0
2016-10-15T02:22:27.444Z,0
2016-10-15T02:23:27.597Z,0
2016-10-15T02:24:27.620Z,0
2016-10-15T02:25:28.460Z,0
2016-10-15T02:26:28.261Z,0
2016-10-15T02:27:27.683Z,0
2016-10-15T02:28:26.671Z,0
2016-10-15T02:29:26.298Z,0
2016-10-15T02:30:27.843Z,0
2016-10-15T02:31:28.742Z,0
2016-10-15T02:32:35.118Z,0
2016-10-15T02:33:27.506Z,0
2016-10-15T02:34:29.108Z,0
2016-10-15T02:35:28.531Z,0
2016-10-15T02:36:26.990Z,0
2016-10-15T02:37:26.305Z,0
2016-10-15T02:38:26.915Z,0
2016-10-15T02:39:27.952Z,0
2016-10-15T02:40:28.230Z,0
2016-10-15T02:41:28.087Z,0
2016-10-15T02:42:28.176Z,0
2016-10-15T02:43:27.855Z,0
2016-10-15T02:44:28.245Z,0
2016-10-15T02:45:28.126Z,0
2016-10-15T02:46:28.270Z,0
2016-10-15T02:47:28.062Z,0
2016-10-15T02:48:28.366Z,0
2016-10-15T02:49:28.036Z,0
2016-10-15T02:50:26.696Z,0
2016-10-15T02:51:27.367Z,0
2016-10-15T02:52:29.174Z,0
2016-10-15T02:53:29.013Z,0
2016-10-15T02:54:27.462Z,0
2016-10-15T02:55:28.809Z,0
2016-10-15T02:56:27.944Z,0
2016-10-15T02:57:27.677Z,0
2016-10-15T02:58:27.958Z,0
2016-10-15T02:59:27.995Z,0
2016-10-15T03:00:27.462Z,0
2016-10-15T03:01:27.869Z,0
2016-10-15T03:02:28.681Z,0
2016-10-15T03:03:28.281Z,0
2016-10-15T03:04:27.483Z,0
2016-10-15T03:05:27.889Z,0
2016-10-15T03:06:27.846Z,0
2016-10-15T03:07:29.103Z,0
2016-10-15T03:08:27.499Z,0
2016-10-15T03:09:27.850Z,0
2016-10-15T03:10:28.286Z,0
2016-10-15T03:11:28.854Z,0
2016-10-15T03:12:28.176Z,0
2016-10-15T03:13:28.808Z,0
2016-10-15T03:14:29.559Z,0
2016-10-15T03:15:28.283Z,0
2016-10-15T03:16:27.936Z,0
2016-10-15T03:17:29.482Z,0
2016-10-15T03:18:28.982Z,0
2016-10-15T03:19:28.530Z,0
2016-10-15T03:20:28.670Z,0
2016-10-15T03:21:28.068Z,0
2016-10-15T03:22:29.303Z,0
2016-10-15T03:23:29.483Z,0
2016-10-15T03:24:28.152Z,0
2016-10-15T03:25:27.731Z,0
2016-10-15T03:26:28.576Z,0
2016-10-15T03:27:28.331Z,0
2016-10-15T03:28:29.691Z,0
2016-10-15T03:29:28.912Z,0
2016-10-15T03:30:29.160Z,0
2016-10-15T03:31:28.080Z,0
2016-10-15T03:32:28.870Z,0
2016-10-15T03:33:28.480Z,0
2016-10-15T03:34:28.123Z,0
2016-10-15T03:35:29.260Z,0
2016-10-15T03:36:30.149Z,0
2016-10-15T03:37:28.148Z,0
2016-10-15T03:38:27.900Z,0
2016-10-15T03:39:29.897Z,0
2016-10-15T03:40:28.692Z,0
2016-10-15T03:41:31.173Z,0
2016-10-15T03:42:28.412Z,0
2016-10-15T03:43:29.332Z,0
2016-10-15T03:44:29.045Z,0
2016-10-15T03:45:30.208Z,0
2016-10-15T03:46:30.320Z,0
2016-10-15T03:47:28.816Z,0
2016-10-15T03:48:29.123Z,0
2016-10-15T03:49:30.820Z,0
2016-10-15T03:50:28.926Z,0
2016-10-15T03:51:29.159Z,0
2016-10-15T03:52:30.376Z,0
2016-10-15T03:53:28.543Z,0
2016-10-15T03:54:28.012Z,0
2016-10-15T03:55:29.408Z,0
2016-10-15T03:56:28.817Z,0
2016-10-15T03:57:28.952Z,0
2016-10-15T03:58:28.690Z,0
2016-10-15T03:59:28.875Z,0
2016-10-15T04:00:28.474Z,0
2016-10-15T04:01:28.870Z,0
2016-10-15T04:02:29.181Z,0
2016-10-15T04:03:30.735Z,0
2016-10-15T04:04:29.597Z,0
2016-10-15T04:05:28.709Z,0
2016-10-15T04:06:28.411Z,0
2016-10-15T04:07:27.988Z,0
2016-10-15T04:08:29.686Z,0
2016-10-15T04:09:29.888Z,0
2016-10-15T04:10:28.780Z,0
2016-10-15T04:11:29.448Z,0
2016-10-15T04:12:28.662Z,0
2016-10-15T04:13:29.520Z,0
2016-10-15T04:14:28.783Z,0
2016-10-15T04:15:29.855Z,0
2016-10-15T04:16:29.105Z,0
2016-10-15T04:17:29.457Z,0
2016-10-15T04:18:28.157Z,0
2016-10-15T04:19:28.370Z,0
2016-10-15T04:20:29.595Z,0
2016-10-15T04:21:30.033Z,0
2016-10-15T04:22:30.239Z,0
2016-10-15T04:23:29.348Z,0
2016-10-15T04:24:29.211Z,0
2016-10-15T04:25:29.369Z,0
2016-10-15T04:26:29.324Z,0
2016-10-15T04:27:30.991Z,0
2016-10-15T04:28:29.105Z,0
2016-10-15T04:29:29.362Z,0
2016-10-15T04:30:28.845Z,0
2016-10-15T04:31:30.511Z,0
2016-10-15T04:32:29.345Z,0
2016-10-15T04:33:28.876Z,0
2016-10-15T04:34:30.748Z,0
2016-10-15T04:35:29.037Z,0
2016-10-15T04:36:29.127Z,0
2016-10-15T04:37:31.278Z,0
2016-10-15T04:38:29.798Z,0
2016-10-15T04:39:29.919Z,0
2016-10-15T04:40:31.502Z,0
2016-10-15T04:41:28.586Z,0
2016-10-15T04:42:28.662Z,0
2016-10-15T04:43:29.488Z,0
2016-10-15T04:44:29.949Z,0
2016-10-15T04:45:29.037Z,0
2016-10-15T04:46:31.167Z,0
2016-10-15T04:47:30.156Z,0
2016-10-15T04:48:30.672Z,0
2016-10-15T04:49:29.292Z,0
2016-10-15T04:50:30.330Z,0
2016-10-15T04:51:29.264Z,0
2016-10-15T04:52:30.931Z,0
2016-10-15T04:53:31.651Z,0
2016-10-15T04:54:30.115Z,0
2016-10-15T04:55:29.596Z,0
2016-10-15T04:56:30.115Z,0
2016-10-15T04:57:29.649Z,0
2016-10-15T04:58:32.046Z,0
2016-10-15T04:59:30.411Z,0
2016-10-15T05:00:30.677Z,0
2016-10-15T05:01:31.134Z,0
2016-10-15T05:02:29.003Z,0
2016-10-15T05:03:30.146Z,0
2016-10-15T05:04:31.461Z,0
2016-10-15T05:05:30.963Z,0
2016-10-15T05:06:29.987Z,0
2016-10-15T05:07:32.523Z,0
2016-10-15T05:08:29.536Z,0
2016-10-15T05:09:32.855Z,0
2016-10-15T05:10:30.141Z,0
2016-10-15T05:11:30.406Z,0
2016-10-15T05:12:29.919Z,0
2016-10-15T05:13:31.818Z,0
2016-10-15T05:14:30.085Z,0
2016-10-15T05:15:31.648Z,0
2016-10-15T05:16:31.538Z,0
2016-10-15T05:17:29.373Z,0
2016-10-15T05:18:31.220Z,0
2016-10-15T05:19:31.971Z,0
2016-10-15T05:20:31.849Z,0
2016-10-15T05:21:30.895Z,0
2016-10-15T05:22:30.536Z,0
2016-10-15T05:23:29.772Z,0
2016-10-15T05:24:30.995Z,0
2016-10-15T05:25:30.417Z,0
2016-10-15T05:26:31.459Z,0
2016-10-15T05:27:31.222Z,0
2016-10-15T05:28:30.804Z,0
2016-10-15T05:29:35.416Z,0
2016-10-15T05:30:31.160Z,0
2016-10-15T05:31:30.702Z,0
2016-10-15T05:32:30.620Z,0
2016-10-15T05:33:30.881Z,0
2016-10-15T05:34:31.601Z,0
2016-10-15T05:35:30.555Z,0
2016-10-15T05:36:30.599Z,0
2016-10-15T05:37:30.396Z,0
2016-10-15T05:38:31.065Z,0
2016-10-15T05:39:30.790Z,5
2016-10-15T05:40:30.560Z,5
2016-10-15T05:41:30.904Z,5
2016-10-15T05:42:29.130Z,5
2016-10-15T05:43:30.797Z,5
2016-10-15T05:44:30.316Z,5
2016-10-15T05:45:29.334Z,10
2016-10-15T05:46:30.761Z,10
2016-10-15T05:47:30.438Z,10
2016-10-15T05:48:30.316Z,10
2016-10-15T05:49:32.627Z,10
2016-10-15T05:50:31.306Z,15
2016-10-15T05:51:30.936Z,15
2016-10-15T05:52:31.673Z,15
2016-10-15T05:53:31.050Z,15
2016-10-15T05:54:31.073Z,20
2016-10-15T05:55:29.182Z,20
2016-10-15T05:56:30.212Z,20
2016-10-15T05:57:29.993Z,20
2016-10-15T05:58:30.145Z,25
2016-10-15T05:59:31.995Z,25
2016-10-15T06:00:32.057Z,25
2016-10-15T06:01:30.334Z,30
2016-10-15T06:02:31.499Z,30
2016-10-15T06:03:30.617Z,35
2016-10-15T06:04:30.663Z,35
2016-10-15T06:05:30.880Z,40
2016-10-15T06:06:32.051Z,40
2016-10-15T06:07:31.050Z,45
2016-10-15T06:08:31.034Z,45
2016-10-15T06:09:30.595Z,50
2016-10-15T06:10:29.989Z,50
2016-10-15T06:11:31.039Z,50
2016-10-15T06:12:32.417Z,55
2016-10-15T06:13:30.195Z,55
2016-10-15T06:14:31.795Z,60
2016-10-15T06:15:30.267Z,60
2016-10-15T06:16:31.758Z,65
2016-10-15T06:17:31.376Z,65
2016-10-15T06:18:31.290Z,70
2016-10-15T06:19:31.373Z,70
2016-10-15T06:20:31.368Z,75
2016-10-15T06:21:31.488Z,75
2016-10-15T06:22:31.145Z,75
2016-10-15T06:23:35.195Z,80
2016-10-15T06:24:30.352Z,80
2016-10-15T06:25:31.839Z,80
2016-10-15T06:26:30.879Z,80
2016-10-15T06:27:32.676Z,80
2016-10-15T06:28:31.501Z,80
2016-10-15T06:29:31.273Z,80
2016-10-15T06:30:31.298Z,85
2016-10-15T06:31:31.023Z,85
2016-10-15T06:32:31.788Z,85
2016-10-15T06:33:29.848Z,85
2016-10-15T06:34:31.324Z,90
2016-10-15T06:35:32.038Z,90
2016-10-15T06:36:31.652Z,95
2016-10-15T06:37:30.960Z,100
2016-10-15T06:38:31.482Z,105
2016-10-15T06:39:32.333Z,115
2016-10-15T06:40:31.679Z,120
2016-10-15T06:41:31.543Z,125
2016-10-15T06:42:32.151Z,130
2016-10-15T06:43:32.172Z,135
2016-10-15T06:44:30.566Z,145
2016-10-15T06:45:30.385Z,150
2016-10-15T06:46:31.947Z,155
2016-10-15T06:47:32.105Z,160
2016-10-15T06:48:31.713Z,165
2016-10-15T06:49:31.715Z,175
2016-10-15T06:50:31.965Z,180
2016-10-15T06:51:32.053Z,185
2016-10-15T06:52:31.675Z,185
2016-10-15T06:53:32.577Z,190
2016-10-15T06:54:32.126Z,200
2016-10-15T06:55:32.962Z,210
2016-10-15T06:56:32.583Z,230
2016-10-15T06:57:32.424Z,250
2016-10-15T06:58:32.728Z,250
2016-10-15T06:59:31.801Z,255
2016-10-15T07:00:31.376Z,255
2016-10-15T07:01:31.815Z,255
2016-10-15T07:02:30.851Z,255
2016-10-15T07:03:30.791Z,265
2016-10-15T07:04:32.311Z,280
2016-10-15T07:05:31.548Z,290
2016-10-15T07:06:32.662Z,305
2016-10-15T07:07:32.419Z,315
2016-10-15T07:08:31.837Z,310
2016-10-15T07:09:32.830Z,300
2016-10-15T07:10:33.097Z,305
2016-10-15T07:11:32.627Z,305
2016-10-15T07:12:30.737Z,295
2016-10-15T07:13:30.855Z,295
2016-10-15T07:14:31.159Z,300
2016-10-15T07:15:31.536Z,290
2016-10-15T07:16:31.597Z,310
2016-10-15T07:17:32.379Z,320
2016-10-15T07:18:32.345Z,325
2016-10-15T07:19:31.869Z,325
2016-10-15T07:20:32.826Z,325
2016-10-15T07:21:32.145Z,320
2016-10-15T07:22:32.070Z,325
2016-10-15T07:23:32.594Z,360
2016-10-15T07:24:31.939Z,345
2016-10-15T07:25:32.705Z,325
2016-10-15T07:26:32.807Z,300
2016-10-15T07:27:32.411Z,310
2016-10-15T07:28:32.536Z,310
2016-10-15T07:29:33.055Z,295
2016-10-15T07:30:32.815Z,285
2016-10-15T07:31:33.943Z,285
2016-10-15T07:32:33.122Z,250
2016-10-15T07:33:34.790Z,235
2016-10-15T07:34:32.217Z,225
2016-10-15T07:35:32.762Z,230
2016-10-15T07:36:32.756Z,230
2016-10-15T07:37:34.752Z,250
2016-10-15T07:38:33.072Z,265
2016-10-15T07:39:31.433Z,250
2016-10-15T07:40:33.320Z,260
2016-10-15T07:41:32.679Z,255
2016-10-15T07:42:31.649Z,270
2016-10-15T07:43:33.076Z,275
2016-10-15T07:44:32.252Z,280
2016-10-15T07:45:32.627Z,275
2016-10-15T07:46:33.563Z,280
2016-10-15T07:47:32.380Z,290
2016-10-15T07:48:33.136Z,310
2016-10-15T07:49:32.674Z,315
2016-10-15T07:50:32.634Z,330
2016-10-15T07:51:32.880Z,375
2016-10-15T07:52:33.157Z,385
2016-10-15T07:53:31.664Z,435
2016-10-15T07:54:32.144Z,460
2016-10-15T07:55:32.367Z,420
2016-10-15T07:56:32.994Z,440
2016-10-15T07:57:33.570Z,445
2016-10-15T07:58:32.071Z,470
2016-10-15T07:59:32.788Z,470
2016-10-15T08:00:33.880Z,500
2016-10-15T08:01:32.950Z,465
2016-10-15T08:02:32.017Z,430
2016-10-15T08:03:33.174Z,375
2016-10-15T08:04:32.487Z,365
2016-10-15T08:05:32.265Z,300
2016-10-15T08:06:33.187Z,270
2016-10-15T08:07:33.806Z,315
2016-10-15T08:08:34.369Z,260
2016-10-15T08:09:32.634Z,235
2016-10-15T08:10:32.871Z,285
2016-10-15T08:11:32.985Z,320
2016-10-15T08:12:33.126Z,310
2016-10-15T08:13:32.894Z,315
2016-10-15T08:14:32.850Z,300
2016-10-15T08:15:32.765Z,300
2016-10-15T08:16:33.165Z,295
2016-10-15T08:17:32.674Z,280
2016-10-15T08:18:35.110Z,275
2016-10-15T08:19:35.355Z,275
2016-10-15T08:20:32.873Z,275
2016-10-15T08:21:33.647Z,265
2016-10-15T08:22:32.284Z,245
2016-10-15T08:23:35.696Z,235
2016-10-15T08:24:33.264Z,240
2016-10-15T08:25:32.561Z,265
2016-10-15T08:26:34.063Z,270
2016-10-15T08:27:34.878Z,265
2016-10-15T08:28:37.110Z,275
2016-10-15T08:29:32.743Z,285
2016-10-15T08:30:33.611Z,300
2016-10-15T08:31:33.602Z,320
2016-10-15T08:32:34.205Z,325
2016-10-15T08:33:34.434Z,350
2016-10-15T08:34:36.205Z,375
2016-10-15T08:35:34.669Z,400
2016-10-15T08:36:36.226Z,410
2016-10-15T08:37:33.041Z,420
2016-10-15T08:38:32.939Z,410
2016-10-15T08:39:32.926Z,415
2016-10-15T08:40:34.047Z,410
2016-10-15T08:41:34.260Z,425
2016-10-15T08:42:33.104Z,395
2016-10-15T08:43:33.703Z,360
2016-10-15T08:44:33.032Z,345
2016-10-15T08:45:33.038Z,340
2016-10-15T08:46:36.319Z,355
2016-10-15T08:47:32.964Z,360
2016-10-15T08:48:33.808Z,345
2016-10-15T08:49:35.556Z,365
2016-10-15T08:50:34.941Z,345
2016-10-15T08:51:33.417Z,315
2016-10-15T08:52:35.280Z,310
2016-10-15T08:53:34.301Z,320
2016-10-15T08:54:34.365Z,345
2016-10-15T08:55:33.818Z,405
2016-10-15T08:56:34.066Z,400
2016-10-15T08:57:32.853Z,400
2016-10-15T08:58:35.839Z,440
2016-10-15T08:59:35.909Z,535
2016-10-15T09:00:32.685Z,600
2016-10-15T09:01:35.044Z,585
2016-10-15T09:02:35.044Z,645
2016-10-15T09:03:34.855Z,755
2016-10-15T09:04:34.828Z,860
2016-10-15T09:05:34.296Z,900
2016-10-15T09:06:34.890Z,920
2016-10-15T09:07:36.845Z,690
2016-10-15T09:08:34.820Z,585
2016-10-15T09:09:34.985Z,655
2016-10-15T09:10:35.276Z,680
2016-10-15T09:11:34.546Z,635
2016-10-15T09:12:33.767Z,550
2016-10-15T09:13:34.352Z,470
2016-10-15T09:14:35.001Z,475
2016-10-15T09:15:34.860Z,580
2016-10-15T09:16:33.668Z,600
2016-10-15T09:17:35.446Z,645
2016-10-15T09:18:33.925Z,645
2016-10-15T09:19:33.901Z,725
2016-10-15T09:20:34.099Z,760
2016-10-15T09:21:34.414Z,730
2016-10-15T09:22:34.035Z,765
2016-10-15T09:23:34.845Z,715
2016-10-15T09:24:35.138Z,590
2016-10-15T09:25:34.797Z,625
2016-10-15T09:26:34.474Z,610
2016-10-15T09:27:33.507Z,665
2016-10-15T09:28:35.365Z,780
2016-10-15T09:29:34.204Z,865
2016-10-15T09:30:34.884Z,945
2016-10-15T09:31:33.252Z,960
2016-10-15T09:32:35.367Z,865
2016-10-15T09:33:35.896Z,895
2016-10-15T09:34:33.287Z,775
2016-10-15T09:35:34.596Z,655
2016-10-15T09:36:35.466Z,685
2016-10-15T09:37:37.049Z,655
2016-10-15T09:38:34.524Z,605
2016-10-15T09:39:34.932Z,575
2016-10-15T09:40:34.953Z,530
2016-10-15T09:41:34.381Z,460
2016-10-15T09:42:35.431Z,385
2016-10-15T09:43:35.045Z,375
2016-10-15T09:44:35.317Z,370
2016-10-15T09:45:35.222Z,385
2016-10-15T09:46:36.613Z,425
2016-10-15T09:47:34.874Z,495
2016-10-15T09:48:35.379Z,510
2016-10-15T09:49:34.793Z,440
2016-10-15T09:50:35.376Z,445
2016-10-15T09:51:34.430Z,470
2016-10-15T09:52:36.352Z,495
2016-10-15T09:53:34.913Z,520
2016-10-15T09:54:35.351Z,545
2016-10-15T09:55:36.338Z,605
2016-10-15T09:56:35.751Z,695
2016-10-15T09:57:35.253Z,725
2016-10-15T09:58:36.826Z,665
2016-10-15T09:59:36.225Z,595
2016-10-15T10:00:34.851Z,555
2016-10-15T10:01:36.194Z,565
2016-10-15T10:02:36.814Z,620
2016-10-15T10:03:35.153Z,700
2016-10-15T10:04:34.756Z,760
2016-10-15T10:05:34.789Z,805
2016-10-15T10:06:35.192Z,880
2016-10-15T10:07:35.746Z,910
2016-10-15T10:08:36.170Z,885
2016-10-15T10:09:35.334Z,700
2016-10-15T10:10:35.856Z,580
2016-10-15T10:11:35.667Z,470
2016-10-15T10:12:36.498Z,415
2016-10-15T10:13:34.972Z,365
2016-10-15T10:14:35.508Z,325
2016-10-15T10:15:37.468Z,300
2016-10-15T10:16:34.635Z,290
2016-10-15T10:17:36.869Z,290
2016-10-15T10:18:35.252Z,260
2016-10-15T10:19:34.065Z,240
2016-10-15T10:20:35.259Z,245
2016-10-15T10:21:36.766Z,270
2016-10-15T10:22:35.937Z,335
2016-10-15T10:23:35.783Z,365
2016-10-15T10:24:34.343Z,355
2016-10-15T10:25:35.458Z,335
2016-10-15T10:26:35.486Z,315
2016-10-15T10:27:35.173Z,290
2016-10-15T10:28:35.652Z,260
2016-10-15T10:29:35.941Z,240
2016-10-15T10:30:35.924Z,230
2016-10-15T10:31:35.022Z,210
2016-10-15T10:32:35.300Z,205
2016-10-15T10:33:37.031Z,200
2016-10-15T10:34:36.132Z,190
2016-10-15T10:35:35.898Z,190
2016-10-15T10:36:36.923Z,190
2016-10-15T10:37:35.389Z,195
2016-10-15T10:38:34.612Z,195
2016-10-15T10:39:37.529Z,190
2016-10-15T10:40:36.411Z,190
2016-10-15T10:41:35.001Z,185
2016-10-15T10:42:34.936Z,175
2016-10-15T10:43:35.043Z,170
2016-10-15T10:44:34.786Z,175
2016-10-15T10:45:36.575Z,185
2016-10-15T10:46:36.630Z,190
2016-10-15T10:47:35.738Z,200
2016-10-15T10:48:36.860Z,220
2016-10-15T10:49:36.914Z,210
2016-10-15T10:50:35.760Z,195
2016-10-15T10:51:36.884Z,185
2016-10-15T10:52:37.312Z,180
2016-10-15T10:53:36.504Z,185
2016-10-15T10:54:36.686Z,185
2016-10-15T10:55:35.479Z,190
2016-10-15T10:56:37.221Z,195
2016-10-15T10:57:35.383Z,185
2016-10-15T10:58:36.812Z,190
2016-10-15T10:59:36.817Z,190
2016-10-15T11:00:37.597Z,185
2016-10-15T11:01:35.901Z,180
2016-10-15T11:02:36.891Z,185
2016-10-15T11:03:37.218Z,195
2016-10-15T11:04:36.507Z,200
2016-10-15T11:05:37.111Z,215
2016-10-15T11:06:38.145Z,230
2016-10-15T11:07:36.752Z,230
2016-10-15T11:08:35.047Z,225
2016-10-15T11:09:37.215Z,210
2016-10-15T11:10:37.943Z,190
2016-10-15T11:11:37.562Z,185
2016-10-15T11:12:35.705Z,190
2016-10-15T11:13:36.503Z,200
2016-10-15T11:14:35.668Z,220
2016-10-15T11:15:37.072Z,255
2016-10-15T11:16:37.341Z,290
2016-10-15T11:17:37.211Z,305
2016-10-15T11:18:37.505Z,300
2016-10-15T11:19:37.421Z,310
2016-10-15T11:20:37.893Z,320
2016-10-15T11:21:36.387Z,340
2016-10-15T11:22:36.673Z,335
2016-10-15T11:23:36.648Z,325
2016-10-15T11:24:37.085Z,360
2016-10-15T11:25:36.983Z,415
2016-10-15T11:26:37.172Z,475
2016-10-15T11:27:35.904Z,555
2016-10-15T11:28:35.724Z,615
2016-10-15T11:29:37.716Z,600
2016-10-15T11:30:36.298Z,530
2016-10-15T11:31:37.394Z,465
2016-10-15T11:32:38.680Z,450
2016-10-15T11:33:36.376Z,445
2016-10-15T11:34:36.861Z,460
2016-10-15T11:35:37.221Z,475
2016-10-15T11:36:37.800Z,465
2016-10-15T11:37:38.641Z,445
2016-10-15T11:38:36.192Z,410
2016-10-15T11:39:38.028Z,380
2016-10-15T11:40:39.757Z,375
2016-10-15T11:41:38.566Z,365
2016-10-15T11:42:38.192Z,365
2016-10-15T11:43:37.695Z,355
2016-10-15T11:44:39.794Z,355
2016-10-15T11:45:36.964Z,365
2016-10-15T11:46:37.003Z,355
2016-10-15T11:47:36.885Z,315
2016-10-15T11:48:37.485Z,285
2016-10-15T11:49:37.128Z,270
2016-10-15T11:50:37.920Z,260
2016-10-15T11:51:37.246Z,245
2016-10-15T11:52:38.476Z,245
2016-10-15T11:53:37.220Z,260
2016-10-15T11:54:37.255Z,280
2016-10-15T11:55:36.846Z,280
2016-10-15T11:56:36.582Z,275
2016-10-15T11:57:36.593Z,285
2016-10-15T11:58:37.581Z,305
2016-10-15T11:59:38.286Z,315
2016-10-15T12:00:37.603Z,310
2016-10-15T12:01:39.098Z,310
2016-10-15T12:02:38.064Z,320
2016-10-15T12:03:39.025Z,320
2016-10-15T12:04:39.058Z,295
2016-10-15T12:05:37.630Z,275
2016-10-15T12:06:39.467Z,245
2016-10-15T12:07:37.100Z,225
2016-10-15T12:08:37.814Z,215
2016-10-15T12:09:38.817Z,220
2016-10-15T12:10:37.468Z,225
2016-10-15T12:11:38.005Z,225
2016-10-15T12:12:38.793Z,235
2016-10-15T12:13:37.855Z,245
2016-10-15T12:14:38.771Z,255
2016-10-15T12:15:38.008Z,255
2016-10-15T12:16:38.097Z,245
2016-10-15T12:17:38.706Z,255
2016-10-15T12:18:39.113Z,245
2016-10-15T12:19:36.803Z,230
2016-10-15T12:20:37.949Z,235
2016-10-15T12:21:37.706Z,250
2016-10-15T12:22:38.162Z,260
2016-10-15T12:23:39.913Z,250
2016-10-15T12:24:39.106Z,230
2016-10-15T12:25:37.898Z,230
2016-10-15T12:26:37.093Z,265
2016-10-15T12:27:38.909Z,285
2016-10-15T12:28:37.799Z,280
2016-10-15T12:29:38.503Z,310
2016-10-15T12:30:39.386Z,340
2016-10-15T12:31:37.851Z,380
2016-10-15T12:32:38.451Z,405
2016-10-15T12:33:39.840Z,415
2016-10-15T12:34:38.467Z,410
2016-10-15T12:35:37.985Z,400
2016-10-15T12:36:38.357Z,375
2016-10-15T12:37:39.934Z,330
2016-10-15T12:38:37.564Z,320
2016-10-15T12:39:37.984Z,300
2016-10-15T12:40:37.524Z,280
2016-10-15T12:41:37.425Z,265
2016-10-15T12:42:40.582Z,255
2016-10-15T12:43:37.904Z,240
2016-10-15T12:44:37.837Z,230
2016-10-15T12:45:38.392Z,220
2016-10-15T12:46:37.890Z,220
2016-10-15T12:47:38.387Z,220
2016-10-15T12:48:39.962Z,210
2016-10-15T12:49:37.898Z,190
2016-10-15T12:50:39.343Z,185
2016-10-15T12:51:39.010Z,180
2016-10-15T12:52:38.305Z,185
2016-10-15T12:53:38.760Z,200
2016-10-15T12:54:37.901Z,205
2016-10-15T12:55:37.585Z,205
2016-10-15T12:56:39.969Z,200
2016-10-15T12:57:38.799Z,200
2016-10-15T12:58:39.075Z,185
2016-10-15T12:59:39.266Z,165
2016-10-15T13:00:38.333Z,150
2016-10-15T13:01:39.696Z,145
2016-10-15T13:02:39.394Z,155
2016-10-15T13:03:38.444Z,175
2016-10-15T13:04:38.331Z,175
2016-10-15T13:05:39.487Z,155
2016-10-15T13:06:38.472Z,155
2016-10-15T13:07:37.659Z,170
2016-10-15T13:08:38.204Z,180
2016-10-15T13:09:39.633Z,170
2016-10-15T13:10:38.775Z,160
2016-10-15T13:11:39.328Z,155
2016-10-15T13:12:39.632Z,145
2016-10-15T13:13:38.436Z,155
2016-10-15T13:14:39.159Z,175
2016-10-15T13:15:40.018Z,170
2016-10-15T13:16:39.276Z,150
2016-10-15T13:17:39.351Z,135
2016-10-15T13:18:39.672Z,135
2016-10-15T13:19:38.660Z,140
2016-10-15T13:20:39.731Z,155
2016-10-15T13:21:39.344Z,165
2016-10-15T13:22:39.340Z,165
2016-10-15T13:23:39.330Z,165
2016-10-15T13:24:38.734Z,155
2016-10-15T13:25:38.125Z,145
2016-10-15T13:26:38.442Z,135
2016-10-15T13:27:38.461Z,135
2016-10-15T13:28:39.445Z,145
2016-10-15T13:29:39.075Z,150
2016-10-15T13:30:39.993Z,145
2016-10-15T13:31:38.560Z,145
2016-10-15T13:32:39.537Z,155
2016-10-15T13:33:39.327Z,165
2016-10-15T13:34:38.544Z,165
2016-10-15T13:35:40.363Z,155
2016-10-15T13:36:40.036Z,150
2016-10-15T13:37:42.008Z,160
2016-10-15T13:38:39.069Z,160
2016-10-15T13:39:40.240Z,160
2016-10-15T13:40:40.134Z,160
2016-10-15T13:41:40.466Z,155
2016-10-15T13:42:39.135Z,150
2016-10-15T13:43:40.418Z,140
2016-10-15T13:44:39.474Z,130
2016-10-15T13:45:39.301Z,125
2016-10-15T13:46:40.845Z,120
2016-10-15T13:47:40.545Z,115
2016-10-15T13:48:40.071Z,115
2016-10-15T13:49:40.872Z,120
2016-10-15T13:50:42.792Z,125
2016-10-15T13:51:39.750Z,135
2016-10-15T13:52:40.788Z,130
2016-10-15T13:53:39.917Z,115
2016-10-15T13:54:40.587Z,95
2016-10-15T13:55:40.139Z,95
2016-10-15T13:56:40.219Z,90
2016-10-15T13:57:39.832Z,90
2016-10-15T13:58:40.894Z,85
2016-10-15T13:59:39.887Z,80
2016-10-15T14:00:39.737Z,80
2016-10-15T14:01:41.150Z,80
2016-10-15T14:02:39.580Z,80
2016-10-15T14:03:40.214Z,75
2016-10-15T14:04:39.778Z,80
2016-10-15T14:05:39.148Z,80
2016-10-15T14:06:39.585Z,80
2016-10-15T14:07:39.849Z,75
2016-10-15T14:08:40.589Z,80
2016-10-15T14:09:41.051Z,80
2016-10-15T14:10:39.990Z,85
2016-10-15T14:11:39.527Z,90
2016-10-15T14:12:39.693Z,95